createdAt,value
2023-03-12T00:01:45.411Z,100122.01691028457
2023-03-12T00:04:41.144Z,100118.4658152348
2023-03-12T00:07:39.541Z,100120.68033078851
2023-03-12T00:10:38.043Z,100132.80820940968
2023-03-12T00:13:34.658Z,100136.00952422069
2023-03-12T00:16:35.142Z,100136.36776531798
2023-03-12T00:19:30.809Z,100136.57400267635
2023-03-12T00:22:26.313Z,100127.95482616151
2023-03-12T00:25:23.839Z,100134.36529547162
2023-03-12T00:28:20.456Z,100124.86537134327
2023-03-12T00:31:18.024Z,100143.00059957049
2023-03-12T00:34:13.554Z,100142.17811420691
2023-03-12T00:37:09.053Z,100143.66545013714
2023-03-12T00:40:05.674Z,100149.98284459021
2023-03-12T00:43:01.228Z,100151.61399088567
2023-03-12T00:45:56.767Z,100150.94791386087
2023-03-12T00:48:52.293Z,100152.50494247985
2023-03-12T00:51:47.907Z,100141.51242430175
2023-03-12T00:54:43.476Z,100138.76514106369
2023-03-12T00:57:39.041Z,100148.34906153807
2023-03-12T01:00:37.612Z,100142.55444975165
2023-03-12T01:03:33.102Z,100153.40032722577
2023-03-12T01:06:28.704Z,100153.40032722577
2023-03-12T01:09:24.263Z,100155.10731456851
2023-03-12T01:12:19.803Z,100150.2760019357
2023-03-12T01:15:17.380Z,100156.21459946122
2023-03-12T01:18:12.969Z,100160.97517845532
2023-03-12T01:21:08.460Z,100151.16067370062
2023-03-12T01:24:06.060Z,100151.16990960503
2023-03-12T01:27:02.659Z,100149.38935692872
2023-03-12T01:29:59.188Z,100151.17245000399
2023-03-12T01:32:54.763Z,100146.63933492686
2023-03-12T01:35:50.448Z,100154.65606265697
2023-03-12T01:38:47.888Z,100148.04001387038
2023-03-12T01:41:44.405Z,100150.63984804411
2023-03-12T01:44:51.947Z,100161.48546177558
2023-03-12T01:47:47.503Z,100166.75581853642
2023-03-12T01:50:43.052Z,100174.01517021253
2023-03-12T01:53:43.624Z,100182.32003433158
2023-03-12T01:56:41.204Z,100172.35658757701
2023-03-12T01:59:43.731Z,100175.1638790005
2023-03-12T02:02:41.288Z,100177.3938911432
2023-03-12T02:05:44.784Z,100177.11995585386
2023-03-12T02:08:43.372Z,100189.27304267276
2023-03-12T02:11:38.905Z,100182.90836225693
2023-03-12T02:14:34.462Z,100195.84293098071
2023-03-12T02:20:47.541Z,100206.38667075215
2023-03-12T02:23:51.125Z,100203.68842132714
2023-03-12T02:26:49.682Z,100211.74785744073
2023-03-12T02:29:46.178Z,100215.55866899397
2023-03-12T02:32:48.862Z,100216.51021008703
2023-03-12T02:35:46.300Z,100226.88472195006
2023-03-12T02:38:52.826Z,100226.01087441471
2023-03-12T02:41:53.417Z,100230.98042781929
2023-03-12T02:44:50.933Z,100243.18026108209
2023-03-12T02:47:46.473Z,100242.83445178809
2023-03-12T02:50:43.086Z,100247.62824798907
2023-03-12T02:53:38.624Z,100257.754190754
2023-03-12T02:56:35.177Z,100260.26361478561
2023-03-12T02:59:30.738Z,100256.46507609985
2023-03-12T03:02:27.300Z,100260.49899986201
2023-03-12T03:05:22.889Z,100260.56228947418
2023-03-12T03:08:19.417Z,100264.32590970726
2023-03-12T03:11:14.972Z,100266.70727629487
2023-03-12T03:14:10.498Z,100266.88340668073
2023-03-12T03:17:06.251Z,100268.53901611365
2023-03-12T03:20:01.669Z,100277.51081940669
2023-03-12T03:22:57.213Z,100287.10454585053
2023-03-12T03:25:55.811Z,100290.89153306362
2023-03-12T03:28:52.294Z,100295.17939938855
2023-03-12T03:31:48.848Z,100298.28710778663
2023-03-12T03:34:44.450Z,100301.26851592198
2023-03-12T03:37:40.061Z,100309.39335620352
2023-03-12T03:40:36.590Z,100313.51010906909
2023-03-12T03:43:32.122Z,100322.02323605945
2023-03-12T03:46:29.814Z,100323.23883056511
2023-03-12T03:49:25.273Z,100326.21597135582
2023-03-12T03:52:21.790Z,100325.05756637685
2023-03-12T03:55:17.379Z,100336.75253613628
2023-03-12T03:58:12.931Z,100337.16172391163
2023-03-12T04:01:08.535Z,100339.9210549824
2023-03-12T04:07:10.606Z,100351.57583473965
2023-03-12T04:10:07.177Z,100371.64635328924
2023-03-12T04:13:02.750Z,100366.2078408667
2023-03-12T04:15:58.316Z,100365.4003240664
2023-03-12T04:18:54.855Z,100379.71185868335
2023-03-12T04:21:50.372Z,100382.87469260953
2023-03-12T04:24:47.081Z,100383.94497320171
2023-03-12T04:27:42.544Z,100386.19471314583
2023-03-12T04:30:39.049Z,100395.40423125653
2023-03-12T04:33:36.649Z,100397.61399286638
2023-03-12T04:36:32.185Z,100403.56030748489
2023-03-12T04:39:28.786Z,100406.63689085205
2023-03-12T04:42:24.281Z,100412.74289661413
2023-03-12T04:45:21.875Z,100424.24524409608
2023-03-12T04:48:17.391Z,100430.31142953358
2023-03-12T04:51:12.989Z,100436.03207568657
2023-03-12T04:54:08.565Z,100440.84485909158
2023-03-12T04:57:04.082Z,100448.60961585086
2023-03-12T05:03:05.366Z,100449.34561175788
2023-03-12T05:06:01.013Z,100463.75612414733
2023-03-12T05:08:56.410Z,100473.54544266583
2023-03-12T05:14:58.400Z,100466.01883296401
2023-03-12T05:17:54.912Z,100465.64207318338
2023-03-12T05:20:56.549Z,100473.12924893557
2023-03-12T05:23:53.104Z,100478.50636453736
2023-03-12T05:26:49.626Z,100480.06781791401
2023-03-12T05:32:50.879Z,100481.03541117445
2023-03-12T05:35:46.305Z,100484.02734521344
2023-03-12T05:38:42.875Z,100489.51859389957
2023-03-12T05:41:38.414Z,100497.69301048566
2023-03-12T05:44:35.016Z,100492.70266650277
2023-03-12T05:47:30.522Z,100498.64589287664
2023-03-12T05:50:26.087Z,100510.39622694411
2023-03-12T05:53:21.630Z,100509.31284108359
2023-03-12T05:59:23.774Z,100530.63616959503
2023-03-12T06:02:20.363Z,100538.0992493106
2023-03-12T06:05:16.878Z,100536.7321858284
2023-03-12T06:08:12.398Z,100547.12047973045
2023-03-12T06:11:09.993Z,100547.24253433732
2023-03-12T06:14:06.562Z,100554.25656783668
2023-03-12T06:17:02.147Z,100570.66059217075
2023-03-12T06:19:57.689Z,100581.33732072127
2023-03-12T06:22:53.376Z,100590.10478348179
2023-03-12T06:25:48.851Z,100594.69557015743
2023-03-12T06:28:45.356Z,100613.1765925776
2023-03-12T06:31:42.050Z,100623.57254157364
2023-03-12T06:34:37.486Z,100633.38475149624
2023-03-12T06:37:33.009Z,100636.330684138
2023-03-12T06:40:28.640Z,100643.495409293
2023-03-12T06:43:24.315Z,100643.97829415815
2023-03-12T06:46:22.005Z,100652.1328256597
2023-03-12T06:49:18.276Z,100651.7431104223
2023-03-12T06:52:13.795Z,100657.41536177912
2023-03-12T06:55:10.439Z,100659.10744630835
2023-03-12T06:58:05.977Z,100653.91300492326
2023-03-12T07:01:03.585Z,100653.18749259651
2023-03-12T07:03:59.084Z,100642.12138820434
2023-03-12T07:06:55.620Z,100636.88499891767
2023-03-12T07:09:52.169Z,100652.26681628561
2023-03-12T07:12:47.782Z,100651.96491976254
2023-03-12T07:15:45.354Z,100649.85218685764
2023-03-12T07:18:42.910Z,100659.74071177059
2023-03-12T07:21:39.403Z,100656.14001974039
2023-03-12T07:24:38.002Z,100659.96031878039
2023-03-12T07:30:41.078Z,100670.53411642897
2023-03-12T07:33:37.782Z,100664.46768301153
2023-03-12T07:36:35.368Z,100664.55001929245
2023-03-12T07:39:30.759Z,100670.36804905173
2023-03-12T07:45:31.900Z,100671.42683923081
2023-03-12T07:48:27.421Z,100683.01140145664
2023-03-12T07:51:23.949Z,100681.70247776873
2023-03-12T07:54:19.524Z,100683.6124629794
2023-03-12T07:57:15.179Z,100686.97482525276
2023-03-12T08:03:17.271Z,100700.30544807322
2023-03-12T08:06:12.839Z,100708.10272280585
2023-03-12T08:09:10.296Z,100707.94665946174
2023-03-12T08:12:07.009Z,100711.99098305292
2023-03-12T08:15:03.419Z,100720.51596253102
2023-03-12T08:17:59.991Z,100722.2334882602
2023-03-12T08:20:55.520Z,100719.24873616688
2023-03-12T08:23:52.132Z,100726.09602285609
2023-03-12T08:26:48.669Z,100725.64163212746
2023-03-12T08:29:44.237Z,100727.86382589344
2023-03-12T08:32:41.827Z,100725.11556349588
2023-03-12T08:35:38.362Z,100725.76500087418
2023-03-12T08:38:33.877Z,100732.90313007054
2023-03-12T08:41:30.483Z,100733.51091925803
2023-03-12T08:44:26.010Z,100728.9971837043
2023-03-12T08:47:21.556Z,100741.53642467463
2023-03-12T08:50:17.136Z,100735.36323142922
2023-03-12T08:53:12.722Z,100743.54819316555
2023-03-12T08:56:08.603Z,100744.1986383642
2023-03-12T08:59:03.780Z,100735.40361449608
2023-03-12T09:01:59.404Z,100740.64994841826
2023-03-12T09:04:54.961Z,100741.11429229355
2023-03-12T09:07:50.498Z,100734.81416537569
2023-03-12T09:10:48.043Z,100737.02901501459
2023-03-12T09:14:09.912Z,100730.12263484193
2023-03-12T09:16:45.185Z,100727.56165585802
2023-03-12T09:19:40.736Z,100726.32275916483
2023-03-12T09:22:37.343Z,100726.30317066288
2023-03-12T09:25:32.883Z,100725.77211533725
2023-03-12T09:28:28.431Z,100731.65694518341
2023-03-12T09:34:29.490Z,100726.97558735714
2023-03-12T09:40:32.654Z,100739.56751391164
2023-03-12T09:43:34.152Z,100737.75213530495
2023-03-12T09:46:34.683Z,100746.11540697854
2023-03-12T09:49:38.291Z,100753.26620637301
2023-03-12T09:52:40.802Z,100749.58788601271
2023-03-12T09:55:41.342Z,100769.7800572375
2023-03-12T09:58:43.932Z,100776.35435762037
2023-03-12T10:01:49.427Z,100769.77269783031
2023-03-12T10:04:59.836Z,100772.52617934186
2023-03-12T10:08:17.406Z,100775.4583427795
2023-03-12T10:11:19.002Z,100774.90086753576
2023-03-12T10:14:27.540Z,100772.32095334011
2023-03-12T10:17:39.071Z,100775.12563409272
2023-03-12T10:20:51.557Z,100781.2878249847
2023-03-12T10:24:00.131Z,100782.68301731891
2023-03-12T10:26:58.630Z,100782.01481387501
2023-03-12T10:29:57.245Z,100787.73489287033
2023-03-12T10:32:59.787Z,100789.62027425948
2023-03-12T10:35:56.308Z,100785.62160030843
2023-03-12T10:38:55.848Z,100787.42697982064
2023-03-12T10:41:53.352Z,100788.1576964699
2023-03-12T10:44:53.933Z,100786.24587155787
2023-03-12T10:48:00.510Z,100796.2678587012
2023-03-12T10:51:02.996Z,100795.93773834719
2023-03-12T10:54:05.613Z,100794.14088585092
2023-03-12T10:57:01.139Z,100794.84678287117
2023-03-12T11:00:06.757Z,100787.06761882146
2023-03-12T11:03:06.242Z,100784.2044640562
2023-03-12T11:06:09.837Z,100789.23409392015
2023-03-12T11:09:17.137Z,100785.89623541277
2023-03-12T11:12:21.820Z,100778.0527468464
2023-03-12T11:15:20.412Z,100785.80713982927
2023-03-12T11:18:20.924Z,100784.64672826759
2023-03-12T11:21:18.500Z,100787.66501554765
2023-03-12T11:24:16.075Z,100785.35746568671
2023-03-12T11:27:25.601Z,100781.99094597786
2023-03-12T11:30:24.154Z,100779.00882817138
2023-03-12T11:33:20.717Z,100781.53603639168
2023-03-12T11:36:28.255Z,100779.61921930533
2023-03-12T11:39:33.729Z,100778.50282053053
2023-03-12T11:42:45.268Z,100779.52674896702
2023-03-12T11:45:52.787Z,100772.28801348868
2023-03-12T11:49:01.406Z,100779.59947432473
2023-03-12T11:52:08.860Z,100777.77091015481
2023-03-12T11:55:17.387Z,100777.92834226984
2023-03-12T11:58:24.974Z,100772.21680392345
2023-03-12T12:01:27.496Z,100771.30533507056
2023-03-12T12:04:40.025Z,100763.29420898062
2023-03-12T12:07:46.546Z,100757.73336035525
2023-03-12T12:10:53.552Z,100758.39995969315
2023-03-12T12:14:01.593Z,100754.46089103294
2023-03-12T12:17:13.110Z,100760.33010974537
2023-03-12T12:20:21.679Z,100763.76077991007
2023-03-12T12:23:28.150Z,100762.36268470994
2023-03-12T12:26:36.743Z,100760.583973223
2023-03-12T12:29:51.262Z,100768.90863373625
2023-03-12T12:32:59.727Z,100762.3819652662
2023-03-12T12:36:00.383Z,100763.90962469162
2023-03-12T12:39:05.847Z,100764.04160160203
2023-03-12T12:42:07.502Z,100766.55667984717
2023-03-12T12:48:18.447Z,100762.7162699486
2023-03-12T12:51:17.002Z,100764.65730834127
2023-03-12T12:57:29.139Z,100759.27385590418
2023-03-12T13:00:36.598Z,100762.87667999206
2023-03-12T13:03:33.186Z,100752.91520419517
2023-03-12T13:06:37.370Z,100761.48889199366
2023-03-12T13:09:41.268Z,100754.07620283114
2023-03-12T13:15:48.684Z,100759.42174535147
2023-03-12T13:18:57.188Z,100754.74986557264
2023-03-12T13:22:03.691Z,100765.43527447105
2023-03-12T13:25:09.217Z,100766.93364740432
2023-03-12T13:28:21.752Z,100767.33306224554
2023-03-12T13:31:31.380Z,100771.72365192152
2023-03-12T13:34:30.826Z,100765.84946069213
2023-03-12T13:37:45.330Z,100771.1112579595
2023-03-12T13:40:50.901Z,100767.04033284126
2023-03-12T13:43:49.416Z,100772.3154384526
2023-03-12T13:46:54.924Z,100767.07931914079
2023-03-12T13:49:53.528Z,100768.5524216596
2023-03-12T13:53:01.054Z,100768.97170862807
2023-03-12T13:56:01.607Z,100767.92002407715
2023-03-12T13:59:00.163Z,100767.77431110368
2023-03-12T14:02:01.796Z,100771.2872715177
2023-03-12T14:08:24.715Z,100770.2706581634
2023-03-12T14:11:36.285Z,100772.27685666419
2023-03-12T14:14:47.816Z,100781.57456210081
2023-03-12T14:17:55.303Z,100783.54091519218
2023-03-12T14:20:54.930Z,100774.97622541606
2023-03-12T14:23:54.436Z,100773.25847705611
2023-03-12T14:26:53.091Z,100774.46062921519
2023-03-12T14:29:55.516Z,100764.70720523193
2023-03-12T14:32:55.109Z,100765.58987621426
2023-03-12T14:35:56.680Z,100766.18815164824
2023-03-12T14:39:00.192Z,100760.79133180644
2023-03-12T14:42:04.724Z,100765.19729619179
2023-03-12T14:45:07.234Z,100769.84286823259
2023-03-12T14:48:11.781Z,100767.39235763052
2023-03-12T14:51:15.363Z,100773.20095902341
2023-03-12T14:54:16.948Z,100773.64183739656
2023-03-12T14:57:20.441Z,100779.8105383868
2023-03-12T15:00:24.934Z,100778.10043230634
2023-03-12T15:03:21.524Z,100771.84680580573
2023-03-12T15:06:20.102Z,100783.15933482966
2023-03-12T15:09:17.606Z,100783.65460125472
2023-03-12T15:12:19.147Z,100786.48529885897
2023-03-12T15:15:19.723Z,100783.30718498505
2023-03-12T15:18:17.265Z,100783.75728938263
2023-03-12T15:21:12.806Z,100782.35756417927
2023-03-12T15:24:13.459Z,100788.40022270763
2023-03-12T15:27:17.920Z,100776.2096178771
2023-03-12T15:30:18.516Z,100775.68848343453
2023-03-12T15:33:19.021Z,100778.87053478224
2023-03-12T15:36:25.671Z,100784.06264322516
2023-03-12T15:39:26.137Z,100788.25563661658
2023-03-12T15:42:28.757Z,100789.80992189003
2023-03-12T15:45:29.221Z,100794.90318609813
2023-03-12T15:48:28.211Z,100792.3329081845
2023-03-12T15:51:28.284Z,100794.31467351542
2023-03-12T15:54:29.831Z,100791.00484211397
2023-03-12T15:57:26.438Z,100801.25777740536
2023-03-12T16:00:25.985Z,100806.51494701454
2023-03-12T16:03:24.509Z,100804.13684451614
2023-03-12T16:06:23.067Z,100802.5981050691
2023-03-12T16:09:24.728Z,100811.17628783899
2023-03-12T16:12:21.175Z,100810.62482221266
2023-03-12T16:15:20.742Z,100815.40108334753
2023-03-12T16:18:18.337Z,100817.90196626385
2023-03-12T16:21:14.853Z,100817.60306446643
2023-03-12T16:24:11.415Z,100816.14432995254
2023-03-12T16:27:14.015Z,100821.1239003124
2023-03-12T16:30:13.448Z,100812.53299990181
2023-03-12T16:33:13.035Z,100808.40415141759
2023-03-12T16:36:11.593Z,100817.93035881914
2023-03-12T16:39:07.106Z,100820.43222840791
2023-03-12T16:42:05.823Z,100824.87454746036
2023-03-12T16:45:04.298Z,100821.00107084058
2023-03-12T16:48:00.837Z,100830.40473978307
2023-03-12T16:50:57.845Z,100837.33489102626
2023-03-12T16:54:05.451Z,100841.97344936778
2023-03-12T17:00:08.047Z,100853.55284411272
2023-03-12T17:03:05.575Z,100862.73034632398
2023-03-12T17:06:03.145Z,100871.11511807321
2023-03-12T17:08:59.764Z,100874.34260193314
2023-03-12T17:11:57.729Z,100878.42896996131
2023-03-12T17:14:53.807Z,100888.37697395534
2023-03-12T17:17:50.425Z,100894.97740350364
2023-03-12T17:20:47.933Z,100891.65852308957
2023-03-12T17:23:45.447Z,100885.35606957704
2023-03-12T17:26:43.024Z,100891.9502226931
2023-03-12T17:29:39.549Z,100889.54373470286
2023-03-12T17:32:35.163Z,100896.23083590195
2023-03-12T17:35:35.747Z,100898.11900299818
2023-03-12T17:38:32.247Z,100905.0247367925
2023-03-12T17:41:27.759Z,100908.29168033908
2023-03-12T17:44:24.372Z,100909.54913548454
2023-03-12T17:47:19.977Z,100917.62492074074
2023-03-12T17:50:15.527Z,100915.886773792
2023-03-12T17:53:12.060Z,100920.59107557793
2023-03-12T17:56:12.844Z,100922.68716298058
2023-03-12T17:59:08.161Z,100928.63544539285
2023-03-12T18:02:04.723Z,100924.59892117538
2023-03-12T18:05:00.403Z,100934.48029564525
2023-03-12T18:07:55.855Z,100937.34429069962
2023-03-12T18:10:51.407Z,100936.67399559014
2023-03-12T18:13:48.016Z,100939.4172964042
2023-03-12T18:16:43.510Z,100936.28164095138
2023-03-12T18:19:39.041Z,100937.42951440334
2023-03-12T18:22:34.664Z,100943.94544354107
2023-03-12T18:25:30.209Z,100942.85735276212
2023-03-12T18:28:25.750Z,100951.15730551146
2023-03-12T18:31:22.380Z,100952.18348848078
2023-03-12T18:34:17.884Z,100950.7710310038
2023-03-12T18:37:14.421Z,100944.68070078398
2023-03-12T18:40:11.005Z,100949.74788478439
2023-03-12T18:43:06.526Z,100950.13736117276
2023-03-12T18:46:02.110Z,100944.03023584568
2023-03-12T18:49:03.705Z,100949.76829334241
2023-03-12T18:51:59.312Z,100949.1789438992
2023-03-12T18:54:54.798Z,100952.48469797825
2023-03-12T19:00:56.866Z,100957.41671294312
2023-03-12T19:03:53.513Z,100965.97200754394
2023-03-12T19:06:51.593Z,100973.24534011849
2023-03-12T19:09:47.539Z,100974.08496520562
2023-03-12T19:12:52.174Z,100968.99242479732
2023-03-12T19:15:44.725Z,100977.43599156661
2023-03-12T19:18:40.254Z,100977.50199413992
2023-03-12T19:21:35.804Z,100977.50609396046
2023-03-12T19:24:31.414Z,100979.33493195116
2023-03-12T19:27:29.150Z,100985.93611787137
2023-03-12T19:30:30.475Z,100990.70976052209
2023-03-12T19:33:28.038Z,100998.30320446755
2023-03-12T19:36:23.576Z,100993.90446789723
2023-03-12T19:39:21.475Z,101008.47472664661
2023-03-12T19:42:17.722Z,101001.74462729516
2023-03-12T19:45:14.282Z,101001.13298348521
2023-03-12T19:48:09.814Z,101007.29168261142
2023-03-12T19:51:06.373Z,101002.18719896319
2023-03-12T19:54:01.919Z,101006.14790702022
2023-03-12T19:56:57.448Z,100998.89852784571
2023-03-12T19:59:53.054Z,101003.7001949538
2023-03-12T20:02:48.810Z,101001.86246251108
2023-03-12T20:05:45.183Z,101007.67947913139
2023-03-12T20:08:40.757Z,101016.30622062583
2023-03-12T20:11:37.298Z,101021.40973194806
2023-03-12T20:14:32.843Z,101021.13982957156
2023-03-12T20:17:28.387Z,101020.05672162784
2023-03-12T20:20:23.957Z,101012.23219002625
2023-03-12T20:23:19.563Z,101018.63105123866
2023-03-12T20:26:15.130Z,101014.67066868962
2023-03-12T20:29:10.660Z,101005.17717468904
2023-03-12T20:32:06.292Z,101007.44647180865
2023-03-12T20:35:01.801Z,101009.5158313426
2023-03-12T20:37:59.330Z,101008.34157982552
2023-03-12T20:40:54.881Z,101021.22973520705
2023-03-12T20:43:54.463Z,101020.20086837342
2023-03-12T20:46:51.031Z,101021.11615656623
2023-03-12T20:49:46.588Z,101022.64125247416
2023-03-12T20:52:43.152Z,101035.18376974558
2023-03-12T20:55:39.713Z,101032.9323160976
2023-03-12T20:58:35.238Z,101038.04642078743
2023-03-12T21:01:31.874Z,101029.75840144658
2023-03-12T21:04:28.342Z,101024.64898027689
2023-03-12T21:07:23.955Z,101031.57020503195
2023-03-12T21:10:20.507Z,101029.7335604686
2023-03-12T21:13:16.004Z,101025.15836745499
2023-03-12T21:16:11.588Z,101031.73792796904
2023-03-12T21:19:07.178Z,101029.95762360416
2023-03-12T21:22:03.755Z,101030.76025660017
2023-03-12T21:24:59.324Z,101028.12825125578
2023-03-12T21:27:54.874Z,101031.34551337929
2023-03-12T21:30:51.459Z,101035.44894238116
2023-03-12T21:33:46.988Z,101036.13302178735
2023-03-12T21:36:43.568Z,101031.46293722595
2023-03-12T21:42:44.654Z,101042.52562838752
2023-03-12T21:45:42.223Z,101042.77713901967
2023-03-12T21:48:38.847Z,101050.00584555649
2023-03-12T21:51:36.791Z,101046.67716639272
2023-03-12T21:54:34.889Z,101046.09127317189
2023-03-12T21:57:30.470Z,101045.6932962889
2023-03-12T22:00:25.942Z,101046.76134958737
2023-03-12T22:03:21.581Z,101054.17548295825
2023-03-12T22:06:22.107Z,101060.66301631404
2023-03-12T22:09:19.615Z,101065.96814544944
2023-03-12T22:12:15.209Z,101062.69630825116
2023-03-12T22:15:10.780Z,101080.39848233077
2023-03-12T22:18:06.314Z,101078.92757998263
2023-03-12T22:21:02.901Z,101078.96684503242
2023-03-12T22:24:00.414Z,101077.09093056328
2023-03-12T22:26:56.998Z,101077.06342919155
2023-03-12T22:29:52.583Z,101076.4728467506
2023-03-12T22:32:48.260Z,101073.29998415615
2023-03-12T22:35:45.749Z,101062.59752418834
2023-03-12T22:38:42.270Z,101065.22775068926
2023-03-12T22:41:47.755Z,101059.48233807679
2023-03-12T22:44:43.331Z,101049.70495658921
2023-03-12T22:47:38.913Z,101052.66301737312
2023-03-12T22:50:34.474Z,101055.846082398
2023-03-12T22:53:30.040Z,101051.40317717812
2023-03-12T22:56:30.620Z,101058.44501022309
2023-03-12T22:59:27.118Z,101050.53891487939
2023-03-12T23:02:22.640Z,101050.13441071256
2023-03-12T23:05:18.239Z,101043.73797913875
2023-03-12T23:08:13.832Z,101034.91169776587
2023-03-12T23:11:10.359Z,101049.4126594427
2023-03-12T23:14:08.868Z,101058.42999946904
2023-03-12T23:17:04.514Z,101064.92460435796
2023-03-12T23:20:04.067Z,101064.46249525652
2023-03-12T23:22:59.574Z,101076.27688004325
2023-03-12T23:25:56.172Z,101081.57092910724
2023-03-12T23:28:53.711Z,101081.98409350039
2023-03-12T23:31:49.321Z,101081.82323224122
2023-03-12T23:34:44.855Z,101082.3550266164
2023-03-12T23:37:40.359Z,101080.72286189251
2023-03-12T23:40:37.991Z,101081.96457257285
2023-03-12T23:43:33.496Z,101074.74193254414
2023-03-12T23:46:30.064Z,101067.08031939149
2023-03-12T23:49:26.616Z,101069.22893251322
2023-03-12T23:52:25.174Z,101076.92918449623
2023-03-12T23:55:20.761Z,101092.79282552599
2023-03-12T23:58:16.282Z,101102.91797303964
